West Melbourne, Florida
Current Conditions -  °F | °C
As of 8:53 AM on Monday 26 Jan 2015 (Local Time) from KMLB Reporting Station
Overcast Overcast  
Wind Chill: 59°   Ceiling: 9500
Heat Index: 59°   Visibility: 10mi
Dew Point: 55°   Wind: 12mph
Humidity: 87%   Direction: 250°WSW
Pressure: 29.88"   Gusts: NA
Location:  28.0786°N, 80.6027°W
Report Text: KMLB 261353Z 25010KT 10SM FEW070 OVC095 15/13 A2988 RMK AO2 RAE1259 SLP117 P0000 T01500128
Loading
Personal Weather Stations






























Interactive Weather Map New forecast layout! Learn more

10-Day Weather Forecast

Advertisements
Track Severe Weather on mobile